Time;durP1;ratioP1;P1;durP2;ratioP2;P2;SDS_P1;SDS_P2;PMS_P1;PMS_P2;Temp;Humidity;BMP_temperature;BMP_pressure;BME280_temperature;BME280_humidity;BME280_pressure;Samples;Min_cycle;Max_cycle;Signal;HPM_P1;HPM_P2
2021/10/04 00:00:19;;;;;;;13.00;2.20;;;;;;;11.46;96.31;101102.09;4923353;28;20051;-70
2021/10/04 00:02:47;;;;;;;3.10;1.70;;;;;;;11.45;95.94;101095.88;4921657;28;20062;-70
2021/10/04 00:05:17;;;;;;;4.70;1.63;;;;;;;11.43;96.00;101091.50;4928560;28;20058;-68
2021/10/04 00:07:45;;;;;;;5.97;1.83;;;;;;;11.42;96.56;101100.44;4924586;28;20059;-70
2021/10/04 00:10:16;;;;;;;5.07;1.60;;;;;;;11.42;96.25;101097.78;4924776;28;20062;-70
2021/10/04 00:12:46;;;;;;;6.13;1.80;;;;;;;11.38;96.33;101102.34;4918583;28;20521;-70
2021/10/04 00:15:17;;;;;;;8.45;2.05;;;;;;;11.35;96.17;101095.28;4926133;28;20129;-70
2021/10/04 00:17:45;;;;;;;4.30;1.70;;;;;;;11.32;96.80;101100.75;4922529;28;20481;-71
2021/10/04 00:20:15;;;;;;;15.02;2.08;;;;;;;11.45;95.79;101103.03;4922699;28;20457;-72
2021/10/04 00:22:45;;;;;;;3.70;1.65;;;;;;;11.37;96.18;101105.91;4924551;28;20051;-72
2021/10/04 00:25:15;;;;;;;4.13;1.80;;;;;;;11.39;96.11;101117.44;4924491;28;20051;-71
2021/10/04 00:27:43;;;;;;;4.10;1.73;;;;;;;11.38;96.02;101124.56;4922750;28;20255;-70
2021/10/04 00:30:12;;;;;;;5.13;1.67;;;;;;;11.35;96.34;101142.50;4926061;28;20043;-70
2021/10/04 00:32:46;;;;;;;6.03;1.52;;;;;;;11.34;96.78;101132.72;4919496;28;20532;-70
2021/10/04 00:35:17;;;;;;;6.55;1.67;;;;;;;11.35;96.51;101140.69;4923463;28;20489;-70
2021/10/04 00:37:46;;;;;;;7.22;2.00;;;;;;;11.40;96.02;101141.44;4915806;28;20058;-68
2021/10/04 00:40:18;;;;;;;10.07;2.40;;;;;;;11.42;96.26;101140.53;4926320;28;20484;-69
2021/10/04 00:42:46;;;;;;;5.57;1.58;;;;;;;11.43;96.00;101142.28;4923764;28;20859;-68
2021/10/04 00:45:15;;;;;;;5.70;1.80;;;;;;;11.35;96.77;101145.16;4922770;28;20968;-68
2021/10/04 00:47:43;;;;;;;4.22;1.70;;;;;;;11.34;97.05;101152.31;4923039;28;20079;-68
2021/10/04 00:50:13;;;;;;;6.45;2.17;;;;;;;11.34;97.11;101148.75;4920933;28;20044;-70
2021/10/04 00:52:41;;;;;;;4.10;1.90;;;;;;;11.29;97.58;101158.69;4919481;28;20091;-68
2021/10/04 00:55:11;;;;;;;7.03;2.20;;;;;;;11.37;97.13;101144.22;4923044;28;20079;-68
2021/10/04 00:57:40;;;;;;;6.50;1.80;;;;;;;11.39;97.52;101141.47;4923146;28;20074;-68
2021/10/04 01:00:11;;;;;;;7.35;1.88;;;;;;;11.41;97.07;101145.00;4928894;28;20274;-68
2021/10/04 01:03:04;;;;;;;6.38;1.80;;;;;;;11.45;96.42;101143.97;4921597;28;20094;-67
2021/10/04 01:05:33;;;;;;;6.03;2.13;;;;;;;11.44;96.45;101160.94;4926390;28;20058;-67
2021/10/04 01:08:00;;;;;;;7.50;1.83;;;;;;;11.48;96.20;101159.91;4919666;28;20083;-67
2021/10/04 01:10:30;;;;;;;6.25;2.08;;;;;;;11.44;96.70;101168.06;4923650;28;20047;-68
2021/10/04 01:12:58;;;;;;;6.75;1.70;;;;;;;11.40;97.02;101176.16;4918287;28;20126;-69
2021/10/04 01:15:26;;;;;;;7.22;1.77;;;;;;;11.45;96.49;101176.03;4923834;28;20182;-68
2021/10/04 01:17:55;;;;;;;8.65;1.98;;;;;;;11.51;96.06;101169.63;4928343;28;20054;-69
2021/10/04 01:20:26;;;;;;;4.55;1.48;;;;;;;11.54;96.20;101172.19;4922195;28;20571;-68
2021/10/04 01:22:56;;;;;;;8.95;2.20;;;;;;;11.51;96.05;101180.31;4928412;28;20062;-68
2021/10/04 01:25:25;;;;;;;6.53;2.00;;;;;;;11.45;96.31;101184.06;4924424;28;20356;-67
2021/10/04 01:27:53;;;;;;;6.30;1.92;;;;;;;11.45;96.49;101186.72;4927061;28;20078;-68
2021/10/04 01:30:25;;;;;;;8.10;1.98;;;;;;;11.45;96.43;101189.41;4926096;28;20470;-67
2021/10/04 01:32:54;;;;;;;3.15;1.70;;;;;;;11.39;96.49;101190.47;4926085;28;20056;-67
2021/10/04 01:35:23;;;;;;;4.03;1.90;;;;;;;11.42;96.39;101192.16;4928359;28;20047;-67
2021/10/04 01:37:51;;;;;;;3.95;1.67;;;;;;;11.41;96.34;101198.44;4925378;28;20129;-68
2021/10/04 01:40:20;;;;;;;6.47;1.60;;;;;;;11.45;95.95;101199.22;4926575;28;20134;-69
2021/10/04 01:42:50;;;;;;;7.50;1.80;;;;;;;11.40;96.15;101194.00;4924286;28;20044;-67
2021/10/04 01:45:21;;;;;;;8.88;2.13;;;;;;;11.38;96.20;101209.22;4926297;28;20115;-68
2021/10/04 01:47:49;;;;;;;4.15;1.85;;;;;;;11.34;96.69;101202.19;4927077;28;20112;-68
2021/10/04 01:50:19;;;;;;;4.57;2.53;;;;;;;11.29;96.52;101196.09;4926210;28;20058;-69
2021/10/04 01:52:48;;;;;;;3.45;1.60;;;;;;;11.33;96.50;101200.47;4924129;28;20059;-70
2021/10/04 01:55:16;;;;;;;8.80;2.13;;;;;;;11.31;96.56;101195.16;4926727;28;20133;-68
2021/10/04 01:57:45;;;;;;;7.45;2.10;;;;;;;11.35;96.41;101193.25;4922561;28;20491;-68
2021/10/04 02:00:15;;;;;;;7.78;2.60;;;;;;;11.29;96.53;101201.44;4925051;28;20055;-68
2021/10/04 02:02:46;;;;;;;3.10;1.80;;;;;;;11.33;96.62;101197.78;4921681;28;20627;-70
2021/10/04 02:05:20;;;;;;;4.30;1.55;;;;;;;11.29;96.67;101194.31;4928199;28;20067;-69
2021/10/04 02:07:50;;;;;;;5.78;2.00;;;;;;;11.26;97.02;101189.06;4925222;28;20103;-68
2021/10/04 02:10:20;;;;;;;4.10;1.90;;;;;;;11.24;97.07;101179.34;4919863;28;20207;-67
2021/10/04 02:12:48;;;;;;;6.05;1.75;;;;;;;11.17;97.28;101181.34;4920543;28;20091;-68
2021/10/04 02:15:16;;;;;;;5.65;1.90;;;;;;;11.13;97.90;101171.66;4925822;28;20154;-70
2021/10/04 02:17:44;;;;;;;10.93;1.90;;;;;;;11.10;98.13;101172.63;4922990;28;20051;-67
2021/10/04 02:20:15;;;;;;;5.63;2.00;;;;;;;11.14;98.11;101163.59;4928594;28;20178;-69
2021/10/04 02:22:43;;;;;;;6.65;2.00;;;;;;;11.15;97.92;101173.38;4927235;28;20129;-67
2021/10/04 02:25:14;;;;;;;5.60;2.65;;;;;;;11.14;98.08;101168.94;4927004;28;20059;-68
2021/10/04 02:27:42;;;;;;;5.35;2.03;;;;;;;11.14;97.94;101162.72;4914398;28;20060;-69
2021/10/04 02:30:15;;;;;;;5.57;1.50;;;;;;;11.08;98.24;101165.56;4923253;28;20051;-68
2021/10/04 02:32:43;;;;;;;7.07;1.60;;;;;;;11.09;98.74;101162.84;4925595;28;20055;-69
2021/10/04 02:35:11;;;;;;;5.55;1.77;;;;;;;11.01;99.06;101165.72;4927056;28;20134;-71
2021/10/04 02:37:40;;;;;;;6.95;2.20;;;;;;;11.04;98.94;101162.13;4925349;28;20047;-71
2021/10/04 02:40:11;;;;;;;5.25;1.88;;;;;;;11.05;98.48;101150.53;4922555;28;20117;-70
2021/10/04 02:42:41;;;;;;;7.20;1.90;;;;;;;11.06;98.56;101159.41;4926656;28;20698;-71
2021/10/04 02:45:11;;;;;;;5.88;1.80;;;;;;;11.05;98.12;101147.84;4925307;28;20812;-71
2021/10/04 02:47:40;;;;;;;3.65;1.70;;;;;;;10.99;98.46;101146.22;4926331;28;20067;-70
2021/10/04 02:50:13;;;;;;;3.47;1.55;;;;;;;11.07;97.84;101140.66;4925201;28;20186;-71
2021/10/04 02:52:41;;;;;;;6.07;2.10;;;;;;;11.07;98.28;101151.34;4919478;28;20352;-70
2021/10/04 02:55:09;;;;;;;5.10;1.98;;;;;;;11.09;97.86;101154.84;4926201;28;20326;-71
2021/10/04 02:57:37;;;;;;;7.00;1.90;;;;;;;11.03;98.09;101155.91;4922942;28;20051;-70
2021/10/04 03:00:15;;;;;;;4.05;1.60;;;;;;;11.02;98.13;101169.28;4924554;28;20066;-70
2021/10/04 03:02:46;;;;;;;8.45;2.30;;;;;;;10.93;98.60;101170.44;4924564;28;20047;-71
2021/10/04 03:05:15;;;;;;;4.65;1.80;;;;;;;10.96;98.47;101166.78;4923982;28;20059;-72
2021/10/04 03:08:07;;;;;;;5.18;1.80;;;;;;;10.89;98.95;101158.06;4926382;28;20058;-69
2021/10/04 03:10:37;;;;;;;3.83;1.90;;;;;;;10.86;99.29;101167.97;4927604;28;20134;-70
2021/10/04 03:13:05;;;;;;;4.13;1.95;;;;;;;10.87;99.07;101170.59;4917562;28;20051;-70
2021/10/04 03:15:35;;;;;;;6.55;2.17;;;;;;;10.87;99.25;101169.72;4927007;28;20053;-70
2021/10/04 03:18:04;;;;;;;4.43;1.80;;;;;;;10.87;99.27;101165.25;4922035;28;20082;-70
2021/10/04 03:20:57;;;;;;;4.65;1.77;;;;;;;10.87;99.06;101169.72;4925036;28;20079;-71
2021/10/04 03:23:25;;;;;;;9.93;2.58;;;;;;;10.85;99.34;101177.78;4924355;28;20059;-70
2021/10/04 03:25:52;;;;;;;4.32;2.10;;;;;;;10.84;99.54;101181.34;4926178;28;20181;-72
2021/10/04 03:28:20;;;;;;;3.45;1.67;;;;;;;10.83;99.61;101168.94;4924052;28;20174;-70
2021/10/04 03:30:49;;;;;;;2.75;1.90;;;;;;;10.82;99.66;101180.53;4927176;28;20059;-70
2021/10/04 03:33:18;;;;;;;6.53;2.25;;;;;;;10.79;99.46;101175.28;4924061;28;20071;-71
2021/10/04 03:35:46;;;;;;;5.47;1.80;;;;;;;10.75;100.00;101181.63;4925608;28;20078;-70
2021/10/04 03:38:14;;;;;;;6.45;2.13;;;;;;;10.79;99.87;101184.16;4922575;28;20051;-67
2021/10/04 03:40:42;;;;;;;4.20;2.00;;;;;;;10.70;100.00;101189.75;4926201;28;20507;-68
2021/10/04 03:43:10;;;;;;;5.13;1.60;;;;;;;10.65;100.00;101189.88;4923116;28;20063;-68
2021/10/04 03:45:38;;;;;;;7.50;3.03;;;;;;;10.61;100.00;101192.69;4925171;28;20187;-67
2021/10/04 03:48:08;;;;;;;7.72;2.30;;;;;;;10.59;100.00;101197.16;4925619;28;20047;-68
2021/10/04 03:50:36;;;;;;;7.05;2.15;;;;;;;10.67;100.00;101203.16;4927233;28;20039;-69
2021/10/04 03:53:05;;;;;;;4.82;2.00;;;;;;;10.68;100.00;101199.59;4919460;28;20316;-68
2021/10/04 03:55:56;;;;;;;6.78;1.90;;;;;;;10.60;100.00;101198.91;4923586;28;20089;-67
2021/10/04 03:58:24;;;;;;;6.43;2.28;;;;;;;10.53;100.00;101202.66;4922244;28;20047;-68
2021/10/04 04:00:52;;;;;;;6.50;2.55;;;;;;;10.55;100.00;101212.38;4923848;28;20058;-68
2021/10/04 04:03:21;;;;;;;3.90;1.88;;;;;;;10.54;100.00;101199.97;4923249;28;20063;-67
2021/10/04 04:05:49;;;;;;;10.63;2.70;;;;;;;10.48;100.00;101215.25;4920052;28;20063;-71
2021/10/04 04:08:17;;;;;;;6.75;2.90;;;;;;;10.47;100.00;101209.03;4926701;28;20074;-68
2021/10/04 04:10:45;;;;;;;6.22;2.38;;;;;;;10.37;100.00;101212.84;4921050;28;20532;-69
2021/10/04 04:13:13;;;;;;;7.10;2.40;;;;;;;10.37;100.00;101216.41;4918693;28;20504;-68
2021/10/04 04:15:41;;;;;;;7.90;2.90;;;;;;;10.32;100.00;101220.06;4925798;28;20063;-70
2021/10/04 04:18:10;;;;;;;7.18;1.88;;;;;;;10.22;100.00;101220.28;4923361;28;20130;-69
2021/10/04 04:20:39;;;;;;;6.90;2.80;;;;;;;10.14;100.00;101227.59;4923226;28;20543;-70
2021/10/04 04:23:07;;;;;;;6.80;2.35;;;;;;;10.06;100.00;101224.22;4921711;28;20155;-68
2021/10/04 04:25:36;;;;;;;7.22;2.30;;;;;;;10.19;100.00;101222.16;4924877;28;20166;-70
2021/10/04 04:28:04;;;;;;;5.07;2.20;;;;;;;10.20;100.00;101227.47;4925091;28;20523;-70
2021/10/04 04:30:32;;;;;;;3.65;2.10;;;;;;;10.12;100.00;101231.22;4922874;28;20059;-73
2021/10/04 04:33:01;;;;;;;3.47;2.08;;;;;;;10.11;100.00;101241.00;4927011;28;20110;-71
2021/10/04 04:35:29;;;;;;;5.50;2.70;;;;;;;10.11;100.00;101246.31;4919244;28;20051;-71
2021/10/04 04:37:58;;;;;;;8.65;2.30;;;;;;;10.23;100.00;101237.16;4925713;28;20118;-70
2021/10/04 04:40:26;;;;;;;6.38;2.20;;;;;;;10.17;100.00;101245.31;4925394;28;20081;-69
2021/10/04 04:42:54;;;;;;;5.15;2.15;;;;;;;10.13;100.00;101249.84;4926175;28;20094;-69
2021/10/04 04:45:23;;;;;;;4.57;1.98;;;;;;;10.15;100.00;101255.13;4923415;28;20838;-69
2021/10/04 04:47:51;;;;;;;5.50;2.35;;;;;;;10.14;100.00;101253.38;4922437;28;20620;-70
2021/10/04 04:50:20;;;;;;;9.48;2.65;;;;;;;10.19;100.00;101265.69;4924792;28;20170;-69
2021/10/04 04:52:48;;;;;;;9.93;3.08;;;;;;;10.23;100.00;101274.50;4917462;28;20047;-69
2021/10/04 04:55:18;;;;;;;4.88;2.28;;;;;;;10.20;100.00;101274.56;4922655;28;20151;-69
2021/10/04 04:57:46;;;;;;;10.35;3.45;;;;;;;10.22;100.00;101262.97;4921944;28;20061;-69
2021/10/04 05:00:16;;;;;;;7.13;2.65;;;;;;;10.13;100.00;101263.19;4922696;28;20114;-70
2021/10/04 05:02:46;;;;;;;6.05;2.40;;;;;;;10.14;100.00;101261.38;4924084;28;20242;-70
2021/10/04 05:05:15;;;;;;;5.95;2.47;;;;;;;10.04;100.00;101261.59;4923160;28;20059;-70
2021/10/04 05:07:43;;;;;;;4.75;2.25;;;;;;;9.93;100.00;101257.41;4923119;28;20052;-69
2021/10/04 05:10:11;;;;;;;4.95;2.13;;;;;;;9.97;100.00;101267.97;4922329;28;20059;-70
2021/10/04 05:12:42;;;;;;;5.22;2.17;;;;;;;9.90;100.00;101266.38;4917532;28;20478;-68
2021/10/04 05:15:11;;;;;;;7.88;3.20;;;;;;;9.84;100.00;101278.06;4923271;28;20083;-70
2021/10/04 05:18:04;;;;;;;7.78;2.53;;;;;;;9.83;100.00;101286.09;4922032;28;20054;-68
2021/10/04 05:20:56;;;;;;;8.07;2.80;;;;;;;9.85;100.00;101292.25;4925144;28;20195;-69
2021/10/04 05:23:24;;;;;;;6.07;2.50;;;;;;;9.82;100.00;101285.19;4922890;28;20051;-67
2021/10/04 05:25:52;;;;;;;6.80;2.47;;;;;;;9.80;100.00;101286.16;4923232;28;20055;-69
2021/10/04 05:28:21;;;;;;;6.72;2.65;;;;;;;9.73;100.00;101291.59;4922478;28;20435;-71
2021/10/04 05:30:49;;;;;;;6.65;2.50;;;;;;;9.72;100.00;101304.94;4921932;28;20158;-71
2021/10/04 05:33:16;;;;;;;8.15;3.42;;;;;;;9.68;100.00;101301.47;4921641;28;20452;-71
2021/10/04 05:35:44;;;;;;;6.78;2.55;;;;;;;9.72;100.00;101310.28;4921678;28;20170;-71
2021/10/04 05:38:12;;;;;;;8.07;3.45;;;;;;;9.65;100.00;101311.31;4925113;28;20051;-70
2021/10/04 05:40:40;;;;;;;7.53;3.50;;;;;;;9.67;100.00;101305.06;4919284;28;20055;-71
2021/10/04 05:43:08;;;;;;;7.47;3.10;;;;;;;9.63;100.00;101306.03;4922777;28;20065;-70
2021/10/04 05:45:39;;;;;;;10.00;3.70;;;;;;;9.63;100.00;101310.47;4924555;28;20151;-70
2021/10/04 05:48:07;;;;;;;12.18;4.40;;;;;;;9.72;100.00;101320.94;4923815;28;20087;-69
2021/10/04 05:50:35;;;;;;;6.78;3.05;;;;;;;9.69;100.00;101323.69;4925265;28;20142;-70
2021/10/04 05:53:28;;;;;;;8.63;3.60;;;;;;;9.72;100.00;101323.59;4920684;28;20129;-70
2021/10/04 05:55:55;;;;;;;5.60;3.35;;;;;;;9.73;100.00;101328.03;4920668;28;20075;-70
2021/10/04 05:58:23;;;;;;;11.20;3.65;;;;;;;9.78;100.00;101334.16;4925330;28;20370;-68
2021/10/04 06:00:52;;;;;;;10.65;3.90;;;;;;;9.87;100.00;101341.06;4921284;28;20142;-69
2021/10/04 06:03:20;;;;;;;9.80;3.15;;;;;;;9.82;100.00;101332.28;4922012;28;20051;-69
2021/10/04 06:05:48;;;;;;;8.23;3.20;;;;;;;9.78;100.00;101341.28;4924735;28;20142;-69
2021/10/04 06:08:16;;;;;;;9.77;3.75;;;;;;;9.75;100.00;101341.34;4921415;28;20669;-68
2021/10/04 06:10:44;;;;;;;10.30;3.22;;;;;;;9.74;100.00;101343.13;4926152;28;20380;-68
2021/10/04 06:13:12;;;;;;;10.50;3.47;;;;;;;9.76;100.00;101341.31;4926933;28;20058;-69
2021/10/04 06:15:41;;;;;;;10.23;3.63;;;;;;;9.71;100.00;101349.38;4924538;28;20125;-67
2021/10/04 06:18:12;;;;;;;11.85;3.80;;;;;;;9.75;100.00;101346.66;4927569;28;20047;-68
2021/10/04 06:20:41;;;;;;;9.35;3.78;;;;;;;9.79;100.00;101351.91;4923019;28;20134;-68
2021/10/04 06:23:10;;;;;;;8.07;3.40;;;;;;;9.78;100.00;101354.59;4925879;28;20225;-68
2021/10/04 06:25:38;;;;;;;12.15;3.90;;;;;;;9.79;100.00;101359.91;4927442;28;21438;-69
2021/10/04 06:28:06;;;;;;;10.25;4.18;;;;;;;9.74;100.00;101367.13;4924656;28;20165;-68
2021/10/04 06:30:35;;;;;;;8.07;3.88;;;;;;;9.75;100.00;101363.53;4930003;28;20051;-67
2021/10/04 06:33:04;;;;;;;10.93;3.13;;;;;;;9.71;100.00;101356.50;4925400;28;20401;-69
2021/10/04 06:35:34;;;;;;;8.07;3.60;;;;;;;9.73;100.00;101360.88;4925659;28;20146;-68
2021/10/04 06:38:02;;;;;;;13.57;3.35;;;;;;;9.70;100.00;101366.31;4927067;28;20039;-70
2021/10/04 06:40:30;;;;;;;8.18;3.80;;;;;;;9.72;100.00;101360.91;4926358;28;20489;-70
2021/10/04 06:42:58;;;;;;;10.23;3.92;;;;;;;9.72;100.00;101356.47;4929567;28;20325;-69
2021/10/04 06:45:26;;;;;;;8.02;3.47;;;;;;;9.70;100.00;101355.63;4921300;28;20895;-67
2021/10/04 06:47:54;;;;;;;7.95;3.70;;;;;;;9.73;100.00;101365.34;4924307;28;20055;-70
2021/10/04 06:50:21;;;;;;;8.15;3.50;;;;;;;9.72;100.00;101366.25;4926166;28;20306;-69
2021/10/04 06:52:51;;;;;;;10.30;3.45;;;;;;;9.78;100.00;101355.47;4920925;28;20595;-69
2021/10/04 06:55:19;;;;;;;11.60;3.75;;;;;;;9.84;100.00;101362.44;4923841;28;20610;-68
2021/10/04 06:57:48;;;;;;;9.63;3.25;;;;;;;9.89;100.00;101363.22;4922265;28;20818;-69
2021/10/04 07:00:20;;;;;;;10.00;3.13;;;;;;;9.89;100.00;101366.78;4923040;28;20058;-69
2021/10/04 07:02:48;;;;;;;8.73;3.97;;;;;;;9.89;100.00;101365.91;4921034;28;20047;-68
2021/10/04 07:05:16;;;;;;;11.90;3.70;;;;;;;9.96;100.00;101378.22;4926596;28;20694;-68
2021/10/04 07:07:44;;;;;;;7.65;3.30;;;;;;;9.98;100.00;101386.19;4916814;28;20055;-69
2021/10/04 07:10:14;;;;;;;9.40;3.55;;;;;;;10.01;100.00;101375.44;4927901;28;20056;-70
2021/10/04 07:12:42;;;;;;;6.88;3.30;;;;;;;10.05;100.00;101383.34;4913788;28;20350;-70
2021/10/04 07:15:11;;;;;;;11.82;3.80;;;;;;;10.10;100.00;101384.13;4925342;28;21581;-70
2021/10/04 07:17:38;;;;;;;6.57;3.20;;;;;;;10.11;100.00;101384.97;4920568;28;20051;-71
2021/10/04 07:20:08;;;;;;;7.20;3.60;;;;;;;10.18;100.00;101380.41;4919660;28;20051;-71
2021/10/04 07:22:37;;;;;;;9.02;3.38;;;;;;;10.20;100.00;101389.25;4922948;28;20047;-70
2021/10/04 07:25:06;;;;;;;6.13;3.60;;;;;;;10.22;100.00;101384.78;4922821;28;20047;-69
2021/10/04 07:27:35;;;;;;;9.90;3.65;;;;;;;10.28;100.00;101390.84;4923959;28;20718;-71
2021/10/04 07:30:04;;;;;;;14.68;3.97;;;;;;;10.33;100.00;101388.09;4922209;28;20654;-71
2021/10/04 07:32:56;;;;;;;5.07;3.17;;;;;;;10.40;100.00;101394.16;4922578;28;20098;-71
2021/10/04 07:35:26;;;;;;;12.70;3.65;;;;;;;10.50;100.00;101386.84;4921010;28;20110;-71
2021/10/04 07:37:54;;;;;;;9.02;2.95;;;;;;;10.58;100.00;101398.22;4923982;28;20086;-71
2021/10/04 07:40:23;;;;;;;6.20;2.75;;;;;;;10.68;99.19;101393.56;4920706;28;20054;-71
2021/10/04 07:43:17;;;;;;;9.52;3.22;;;;;;;10.85;99.16;101396.69;4922977;28;20159;-72
2021/10/04 07:45:45;;;;;;;14.82;3.47;;;;;;;10.95;98.13;101402.69;4921471;28;20496;-71
2021/10/04 07:48:13;;;;;;;7.32;3.17;;;;;;;11.06;97.90;101416.63;4923033;28;20272;-69
2021/10/04 07:50:44;;;;;;;8.57;3.25;;;;;;;11.12;96.39;101404.94;4920210;28;20079;-70
2021/10/04 07:53:12;;;;;;;13.80;3.63;;;;;;;11.26;96.40;101401.91;4922123;28;20524;-70
2021/10/04 07:55:41;;;;;;;7.70;2.90;;;;;;;11.44;95.63;101396.09;4917612;28;20555;-69
2021/10/04 07:58:09;;;;;;;8.88;3.60;;;;;;;11.61;94.66;101392.06;4923665;28;20268;-69
2021/10/04 08:00:39;;;;;;;5.38;2.80;;;;;;;11.83;93.81;101395.88;4925556;28;20431;-70
2021/10/04 08:03:08;;;;;;;6.32;2.92;;;;;;;11.64;92.99;101395.53;4921497;28;20052;-69
2021/10/04 08:05:37;;;;;;;7.75;3.00;;;;;;;11.75;93.23;101387.22;4927129;28;20071;-69
2021/10/04 08:08:05;;;;;;;8.23;3.08;;;;;;;12.03;92.71;101389.13;4921185;28;20047;-69
2021/10/04 08:10:33;;;;;;;13.27;2.90;;;;;;;11.96;91.13;101391.97;4922286;28;20078;-71
2021/10/04 08:13:01;;;;;;;7.75;2.72;;;;;;;12.01;91.14;101393.66;4922134;28;20215;-70
2021/10/04 08:15:29;;;;;;;7.70;2.90;;;;;;;12.14;90.55;101405.75;4919779;28;20058;-70
2021/10/04 08:17:58;;;;;;;7.45;2.75;;;;;;;12.26;89.97;101404.47;4923001;28;20155;-70
2021/10/04 08:20:27;;;;;;;7.55;2.92;;;;;;;12.11;90.58;101400.47;4917276;28;20047;-68
2021/10/04 08:22:55;;;;;;;7.65;3.33;;;;;;;12.43;89.96;101409.31;4923256;28;20661;-70
2021/10/04 08:25:22;;;;;;;8.63;2.85;;;;;;;12.77;89.45;101402.91;4919912;28;20492;-70
2021/10/04 08:27:50;;;;;;;11.73;4.03;;;;;;;12.71;87.67;101428.09;4921617;28;20527;-70
2021/10/04 08:30:18;;;;;;;12.80;3.20;;;;;;;12.63;89.13;101427.44;4923372;28;20125;-70
2021/10/04 08:32:47;;;;;;;9.90;4.05;;;;;;;12.49;88.14;101417.16;4918314;28;20387;-71
2021/10/04 08:35:16;;;;;;;6.70;3.22;;;;;;;12.44;88.33;101422.66;4922711;28;20067;-70
2021/10/04 08:37:45;;;;;;;8.27;2.80;;;;;;;12.62;88.65;101413.19;4920763;28;20059;-71
2021/10/04 08:40:16;;;;;;;11.00;3.03;;;;;;;12.62;87.69;101402.47;4923312;28;20575;-71
2021/10/04 08:42:48;;;;;;;6.25;3.13;;;;;;;12.81;87.00;101396.53;4923491;28;20411;-72
2021/10/04 08:45:16;;;;;;;11.15;3.05;;;;;;;12.65;87.44;101394.34;4916139;28;20738;-70
2021/10/04 08:47:44;;;;;;;11.18;4.40;;;;;;;12.99;86.75;101400.41;4924327;28;20354;-70
2021/10/04 08:50:14;;;;;;;9.73;3.30;;;;;;;12.86;87.08;101403.50;4918727;28;20051;-70
2021/10/04 08:52:43;;;;;;;7.60;3.10;;;;;;;12.89;86.24;101397.16;4917335;28;20066;-68
2021/10/04 08:55:12;;;;;;;7.53;3.53;;;;;;;13.03;86.76;101397.56;4922719;28;20737;-69
2021/10/04 08:57:39;;;;;;;12.35;3.75;;;;;;;13.09;85.79;101401.84;4917603;28;20777;-69
2021/10/04 09:00:09;;;;;;;15.50;4.15;;;;;;;13.18;84.81;101393.50;4924923;28;20117;-69
2021/10/04 09:03:02;;;;;;;14.85;3.45;;;;;;;13.61;84.44;101402.75;4923057;28;20493;-69
2021/10/04 09:05:57;;;;;;;9.38;3.15;;;;;;;13.56;84.62;101388.63;4926048;28;20473;-68
2021/10/04 09:08:26;;;;;;;9.82;3.33;;;;;;;13.66;84.12;101402.59;4917307;28;20776;-68
2021/10/04 09:10:56;;;;;;;11.65;3.42;;;;;;;13.72;83.67;101396.13;4919667;28;20058;-69
2021/10/04 09:13:24;;;;;;;10.52;3.17;;;;;;;13.81;83.77;101412.78;4919457;28;20055;-68
2021/10/04 09:15:52;;;;;;;11.05;3.55;;;;;;;14.17;82.74;101398.03;4918352;28;20066;-69
2021/10/04 09:18:21;;;;;;;10.07;3.05;;;;;;;13.97;82.94;101410.38;4920418;28;20121;-69
2021/10/04 09:20:58;;;;;;;9.98;3.08;;;;;;;13.99;82.44;101402.28;4920000;28;20522;-70
2021/10/04 09:23:44;;;;;;;11.90;3.17;;;;;;;13.88;81.83;101408.06;4919678;28;20059;-69
2021/10/04 09:26:31;;;;;;;8.57;2.83;;;;;;;14.27;80.75;101399.44;4918360;28;20059;-69
2021/10/04 09:29:01;;;;;;;5.43;2.70;;;;;;;14.23;80.99;101421.06;4918795;28;20200;-69
2021/10/04 09:31:30;;;;;;;11.00;3.08;;;;;;;14.33;80.90;101414.41;4918073;28;20051;-71
2021/10/04 09:34:26;;;;;;;9.68;3.33;;;;;;;14.61;80.08;101416.03;4918404;28;20453;-70
2021/10/04 09:36:55;;;;;;;11.00;3.55;;;;;;;14.63;80.43;101417.75;4923931;28;20079;-70
2021/10/04 09:39:26;;;;;;;12.02;3.63;;;;;;;14.63;80.59;101417.75;4921810;28;20868;-70
2021/10/04 09:42:06;;;;;;;11.40;3.53;;;;;;;15.00;79.92;101418.06;4925541;28;20460;-69
2021/10/04 09:44:57;;;;;;;12.32;3.72;;;;;;;14.57;79.69;101420.63;4927119;28;20056;-70
2021/10/04 09:47:28;;;;;;;7.72;3.17;;;;;;;14.85;78.39;101420.44;4926145;28;20051;-70
2021/10/04 09:49:59;;;;;;;10.48;3.42;;;;;;;14.62;79.44;101421.34;4923756;28;20074;-70
2021/10/04 09:52:49;;;;;;;10.32;2.75;;;;;;;15.13;77.58;101424.66;4917731;28;20245;-71
2021/10/04 09:55:30;;;;;;;9.95;3.47;;;;;;;14.72;77.31;101427.25;4918352;28;20145;-70
2021/10/04 09:58:04;;;;;;;14.65;3.70;;;;;;;14.61;79.31;101429.47;4922263;28;20483;-70
2021/10/04 10:00:36;;;;;;;12.90;3.03;;;;;;;14.82;77.55;101434.00;4925226;28;20166;-71
2021/10/04 10:03:06;;;;;;;7.18;2.50;;;;;;;15.04;76.12;101436.69;4929002;28;20820;-69
2021/10/04 10:05:59;;;;;;;11.73;3.50;;;;;;;15.31;75.06;101441.84;4927016;28;20191;-71
2021/10/04 10:08:29;;;;;;;6.97;2.85;;;;;;;15.62;74.50;101435.16;4927101;28;20111;-72
2021/10/04 10:11:00;;;;;;;10.48;2.67;;;;;;;15.47;73.99;101432.16;4921778;28;20052;-69
2021/10/04 10:13:29;;;;;;;13.55;2.80;;;;;;;15.58;74.58;101429.03;4921596;28;20507;-70
2021/10/04 10:16:00;;;;;;;8.30;2.47;;;;;;;15.71;75.64;101434.75;4921665;28;20081;-70
2021/10/04 10:18:34;;;;;;;11.70;2.97;;;;;;;15.79;73.53;101429.94;4926154;28;20075;-70
2021/10/04 10:21:04;;;;;;;14.68;3.10;;;;;;;15.87;73.13;101429.59;4924783;28;20109;-71
2021/10/04 10:23:46;;;;;;;9.98;2.20;;;;;;;15.39;74.12;101450.47;4924432;28;20050;-71
2021/10/04 10:26:36;;;;;;;8.63;2.55;;;;;;;15.12;74.06;101442.63;4922531;28;20137;-70
2021/10/04 10:29:21;;;;;;;7.20;2.42;;;;;;;15.22;75.64;101439.53;4923198;28;20514;-71
2021/10/04 10:32:17;;;;;;;9.80;2.60;;;;;;;15.32;75.64;101444.47;4918704;28;20055;-71
2021/10/04 10:34:55;;;;;;;12.15;2.58;;;;;;;15.34;76.05;101435.47;4920574;28;20074;-71
2021/10/04 10:37:26;;;;;;;8.35;2.65;;;;;;;15.36;75.42;101438.94;4921689;28;20047;-71
2021/10/04 10:39:56;;;;;;;9.80;2.88;;;;;;;15.49;74.45;101443.75;4923691;28;20417;-70
2021/10/04 10:42:28;;;;;;;14.70;3.45;;;;;;;15.52;72.89;101423.91;4926910;28;20163;-71
2021/10/04 10:45:17;;;;;;;9.98;2.55;;;;;;;15.99;73.23;101420.97;4927475;28;20058;-70
2021/10/04 10:48:10;;;;;;;9.05;2.40;;;;;;;16.34;71.65;101417.56;4921002;28;20051;-67
2021/10/04 10:51:10;;;;;;;10.13;2.78;;;;;;;16.42;70.83;101418.09;4927843;28;20046;-69
2021/10/04 10:54:36;;;;;;;10.52;2.47;;;;;;;16.55;68.61;101418.38;4923903;28;20058;-69
2021/10/04 10:57:04;;;;;;;10.98;2.92;;;;;;;16.33;69.84;101421.22;4930130;28;20110;-68
2021/10/04 11:00:18;;;;;;;8.93;2.83;;;;;;;16.15;68.71;101441.81;4923324;28;20093;-66
2021/10/04 11:03:12;;;;;;;9.85;2.72;;;;;;;16.30;69.05;101422.25;4924240;28;20613;-67
2021/10/04 11:05:58;;;;;;;6.63;2.38;;;;;;;16.44;68.09;101422.44;4922520;28;20051;-68
2021/10/04 11:08:56;;;;;;;10.15;2.58;;;;;;;16.29;69.25;101425.88;4923040;28;20055;-67
2021/10/04 11:11:30;;;;;;;8.43;2.55;;;;;;;16.51;69.38;101423.03;4924001;28;20127;-67
2021/10/04 11:14:11;;;;;;;8.57;2.75;;;;;;;16.86;69.25;101419.63;4921832;28;20566;-68
2021/10/04 11:17:05;;;;;;;13.20;2.60;;;;;;;16.13;69.45;101423.03;4922261;28;20159;-67
2021/10/04 11:19:57;;;;;;;9.63;2.10;;;;;;;16.26;70.11;101423.34;4919054;28;20547;-67
2021/10/04 11:22:25;;;;;;;10.73;2.53;;;;;;;15.82;70.65;101410.97;4926082;28;20153;-69
2021/10/04 11:25:00;;;;;;;10.52;3.20;;;;;;;16.09;70.24;101420.53;4921363;28;20789;-67
2021/10/04 11:27:28;;;;;;;11.88;2.65;;;;;;;16.62;69.41;101419.84;4927436;28;20541;-67
2021/10/04 11:30:05;;;;;;;10.70;2.50;;;;;;;16.77;67.28;101416.41;4917638;28;20532;-67
2021/10/04 11:32:34;;;;;;;7.28;2.28;;;;;;;16.40;69.14;101422.69;4925356;28;20062;-67
2021/10/04 11:35:13;;;;;;;8.35;2.05;;;;;;;16.24;69.63;101420.72;4919351;28;20396;-67
2021/10/04 11:37:41;;;;;;;13.77;2.85;;;;;;;15.99;70.32;101417.41;4923185;28;20081;-67
2021/10/04 11:40:11;;;;;;;13.35;3.55;;;;;;;16.53;69.97;101422.97;4920337;28;20062;-66
2021/10/04 11:42:39;;;;;;;7.00;2.83;;;;;;;16.30;70.50;101416.00;4923804;28;20117;-67